Gilark, Louisiana
Current Conditions -  °F | °C
As of 11:35 PM on Friday 19 Dec 2014 (Local Time) from KMNE Reporting Station
Overcast Overcast  
Wind Chill: 46°   Ceiling: 900
Heat Index: 46°   Visibility: 10mi
Dew Point: 43°   Wind: 0mph
Humidity: 87%   Direction: NA
Pressure: 30.21"   Gusts: NA
Location:  32.7093°N, 93.3068°W
Report Text: KMNE 200535Z AUTO 00000KT 10SM OVC009 08/06 A3021 RMK AO2
Loading
Personal Weather Stations






























Interactive Weather Map New forecast layout! Learn more

10-Day Weather Forecast

Advertisements
Track Severe Weather on mobile